Ocracoke, NC

7:31 PM EST on December 28, 2014 (GMT -0500)
Piney Island | Change Station
CLOSE
Current Station
Airport
Location: Piney Island,
Elevation: 16 ft
Nearby Weather Stations

Elev 16 ft 35.02 °N, 76.46 °W | Updated 35 minutes ago

Partly Cloudy
Partly Cloudy
60 °F
Feels Like 60 °F
N
5
Wind Variable Wind from SW

Today
High -- | Low -- °F
--% Chance of Precip.
Yesterday
High -- | Low -- °F
Precip. -- in
7:11 AM 4:59 PM
First Quarter, 53% visible
Pressure 30.06 in
Visibility -9999.0 miles
Clouds Few 5000 ft
Dew Point 55 °F
Humidity 83%
Rainfall 0.00 in
Snow Depth Not available.
UV 0 out of 12
Pollen .10 out of 12
Air Quality Not available.
Flu Activity Not available.
METAR KNBT 282356Z AUTO 22004KT FEW050 16/13 A3005 RMK AO2 SLP179 6//// T01560128 10233 20156 53009 PNO $

More Conditions Fewer Conditions

Pressure 30.06 in
Visibility -9999.0 miles
Clouds Few 5000 ft
Dew Point 55 °F
Humidity 83%
Rainfall 0.00 in
Snow Depth Not available.
UV 0 out of 12
Pollen .10 out of 12
Air Quality Not available.
Flu Activity Not available.
METAR KNBT 282356Z AUTO 22004KT FEW050 16/13 A3005 RMK AO2 SLP179 6//// T01560128 10233 20156 53009 PNO $

More Conditions Fewer Conditions

10-Day Weather Forecast

Almanac

Astronomy

Dec. 28, 2014 Rise Set
Actual Time
Civil Twilight
Nautical Twilight
Astronomical Twilight
Moon
Length of Visible Light
Length of Day
Tomorrow will be .
, % of the Moon is Illuminated

Today's Extremes

State Highs State Lows

Community

WunderPhotos

Upload Photos

1,781,472 photos uploaded!

WunderBlogs® & News

Nearby

Air Quality

  Air Quality AQ Index Pollutant
Not available.

Snow Depth

Station Depth Elevation

Earthquake Activity

City Distance Mag. Time & Date
Minimum magnitude displayed is 2.5.

Coastal Water Temperatures

Place Temperature

Nearby Weather Stations